createdAt,value
2022-12-06T00:01:35.853Z,6.03
2022-12-06T00:04:10.681Z,5.88
2022-12-06T00:06:45.756Z,5.93
2022-12-06T00:09:24.107Z,5.65
2022-12-06T00:11:53.415Z,6.13
2022-12-06T00:14:22.456Z,6.63
2022-12-06T00:16:51.389Z,5.93
2022-12-06T00:19:23.190Z,6.40
2022-12-06T00:21:52.170Z,6.57
2022-12-06T00:26:51.592Z,5.57
2022-12-06T00:29:25.541Z,6.00
2022-12-06T00:31:56.205Z,5.85
2022-12-06T00:34:30.709Z,6.38
2022-12-06T00:36:59.434Z,5.95
2022-12-06T00:39:28.800Z,6.30
2022-12-06T00:42:03.617Z,6.05
2022-12-06T00:44:33.901Z,5.85
2022-12-06T00:47:02.610Z,5.55
2022-12-06T00:49:32.805Z,6.47
2022-12-06T00:52:04.239Z,5.40
2022-12-06T00:54:32.788Z,5.47
2022-12-06T00:57:01.492Z,5.95
2022-12-06T00:59:30.971Z,6.00
2022-12-06T01:01:59.420Z,5.35
2022-12-06T01:04:27.887Z,6.03
2022-12-06T01:06:56.691Z,6.30
2022-12-06T01:09:26.663Z,6.10
2022-12-06T01:11:55.389Z,5.35
2022-12-06T01:14:23.563Z,6.03
2022-12-06T01:16:52.157Z,6.43
2022-12-06T01:19:20.438Z,5.50
2022-12-06T01:21:49.769Z,6.85
2022-12-06T01:24:17.956Z,6.05
2022-12-06T01:26:46.252Z,5.95
2022-12-06T01:29:14.673Z,5.45
2022-12-06T01:31:42.766Z,6.05
2022-12-06T01:34:16.888Z,5.95
2022-12-06T01:36:45.675Z,5.82
2022-12-06T01:39:13.800Z,6.15
2022-12-06T01:41:42.188Z,5.63
2022-12-06T01:44:46.857Z,6.03
2022-12-06T01:47:31.927Z,5.38
2022-12-06T01:50:28.521Z,6.15
2022-12-06T01:53:09.314Z,6.70
2022-12-06T01:55:39.461Z,6.22
2022-12-06T01:58:16.465Z,5.78
2022-12-06T02:00:45.413Z,6.57
2022-12-06T02:03:20.080Z,5.55
2022-12-06T02:05:49.654Z,5.50
2022-12-06T02:08:19.584Z,6.03
2022-12-06T02:10:48.760Z,6.20
2022-12-06T02:13:17.149Z,5.65
2022-12-06T02:15:53.478Z,7.07
2022-12-06T02:18:47.586Z,6.32
2022-12-06T02:21:21.801Z,6.25
2022-12-06T02:24:05.765Z,6.03
2022-12-06T02:26:43.832Z,5.75
2022-12-06T02:29:23.075Z,6.30
2022-12-06T02:32:07.512Z,6.00
2022-12-06T02:34:48.541Z,5.55
2022-12-06T02:37:45.590Z,5.97
2022-12-06T02:40:20.464Z,5.65
2022-12-06T02:43:01.827Z,5.53
2022-12-06T02:45:35.280Z,5.78
2022-12-06T02:48:05.239Z,5.68
2022-12-06T02:50:40.199Z,5.25
2022-12-06T02:53:13.536Z,5.70
2022-12-06T02:55:43.165Z,5.43
2022-12-06T02:58:11.723Z,5.65
2022-12-06T03:00:45.910Z,5.68
2022-12-06T03:03:20.066Z,5.60
2022-12-06T03:06:17.191Z,5.63
2022-12-06T03:09:13.369Z,5.13
2022-12-06T03:12:13.271Z,5.22
2022-12-06T03:15:02.339Z,5.53
2022-12-06T03:17:33.860Z,5.40
2022-12-06T03:20:10.527Z,5.43
2022-12-06T03:22:44.125Z,4.90
2022-12-06T03:25:13.424Z,5.07
2022-12-06T03:27:43.231Z,6.05
2022-12-06T03:30:14.223Z,5.75
2022-12-06T03:32:45.770Z,4.70
2022-12-06T03:35:18.508Z,5.43
2022-12-06T03:37:57.894Z,4.78
2022-12-06T03:40:31.336Z,5.05
2022-12-06T03:43:00.435Z,5.57
2022-12-06T03:45:36.972Z,5.28
2022-12-06T03:48:16.976Z,5.60
2022-12-06T03:50:55.428Z,5.22
2022-12-06T03:53:27.180Z,5.10
2022-12-06T03:58:23.364Z,4.67
2022-12-06T04:00:59.413Z,5.38
2022-12-06T04:03:27.799Z,4.72
2022-12-06T04:05:56.088Z,5.18
2022-12-06T04:08:24.343Z,5.32
2022-12-06T04:10:52.810Z,4.88
2022-12-06T04:13:21.272Z,5.82
2022-12-06T04:15:50.238Z,4.72
2022-12-06T04:18:19.060Z,5.18
2022-12-06T04:23:17.869Z,4.97
2022-12-06T04:25:46.395Z,4.80
2022-12-06T04:28:15.247Z,5.28
2022-12-06T04:33:11.524Z,4.67
2022-12-06T04:35:39.627Z,4.93
2022-12-06T04:38:07.767Z,5.47
2022-12-06T04:40:36.082Z,4.63
2022-12-06T04:43:04.182Z,4.65
2022-12-06T04:45:32.385Z,4.30
2022-12-06T04:48:00.558Z,5.18
2022-12-06T04:50:28.996Z,4.40
2022-12-06T04:52:58.813Z,4.97
2022-12-06T04:55:28.100Z,4.43
2022-12-06T05:00:31.160Z,5.18
2022-12-06T05:02:59.710Z,4.50
2022-12-06T05:05:27.982Z,5.25
2022-12-06T05:07:56.594Z,5.10
2022-12-06T05:10:24.987Z,4.38
2022-12-06T05:12:53.755Z,4.22
2022-12-06T05:15:26.644Z,4.20
2022-12-06T05:17:57.622Z,3.92
2022-12-06T05:20:25.945Z,3.97
2022-12-06T05:22:54.428Z,4.00
2022-12-06T05:25:22.996Z,4.65
2022-12-06T05:27:51.597Z,4.10
2022-12-06T05:30:21.687Z,4.55
2022-12-06T05:32:55.415Z,3.67
2022-12-06T05:35:25.617Z,5.03
2022-12-06T05:37:54.306Z,5.10
2022-12-06T05:40:23.077Z,4.03
2022-12-06T05:42:52.950Z,4.35
2022-12-06T05:45:21.323Z,4.40
2022-12-06T05:47:49.831Z,4.43
2022-12-06T05:52:49.344Z,4.82
2022-12-06T05:55:21.858Z,5.03
2022-12-06T05:57:51.885Z,4.35
2022-12-06T06:00:23.332Z,4.70
2022-12-06T06:02:52.343Z,4.47
2022-12-06T06:05:20.878Z,4.07
2022-12-06T06:07:49.352Z,4.97
2022-12-06T06:10:18.111Z,3.85
2022-12-06T06:15:15.339Z,4.30
2022-12-06T06:17:44.246Z,3.63
2022-12-06T06:20:13.689Z,4.53
2022-12-06T06:22:42.530Z,3.72
2022-12-06T06:25:11.365Z,4.65
2022-12-06T06:27:39.797Z,4.40
2022-12-06T06:30:11.571Z,3.70
2022-12-06T06:32:40.722Z,3.95
2022-12-06T06:35:09.850Z,4.25
2022-12-06T06:37:38.472Z,4.53
2022-12-06T06:40:07.700Z,4.10
2022-12-06T06:42:36.131Z,4.60
2022-12-06T06:45:04.985Z,4.03
2022-12-06T06:47:34.577Z,4.18
2022-12-06T06:50:03.934Z,3.83
2022-12-06T06:52:32.672Z,4.45
2022-12-06T06:55:00.906Z,4.60
2022-12-06T06:57:29.330Z,4.80
2022-12-06T06:59:57.920Z,4.43
2022-12-06T07:02:26.468Z,3.83
2022-12-06T07:04:54.755Z,4.38
2022-12-06T07:07:22.958Z,4.40
2022-12-06T07:09:51.008Z,3.93
2022-12-06T07:12:19.669Z,4.57
2022-12-06T07:14:48.074Z,3.47
2022-12-06T07:17:16.448Z,4.03
2022-12-06T07:19:44.574Z,4.68
2022-12-06T07:22:12.877Z,3.92
2022-12-06T07:24:43.590Z,4.22
2022-12-06T07:27:13.159Z,4.32
2022-12-06T07:29:41.460Z,4.28
2022-12-06T07:32:09.736Z,4.55
2022-12-06T07:34:38.590Z,5.57
2022-12-06T07:39:36.214Z,4.75
2022-12-06T07:42:04.757Z,4.65
2022-12-06T07:44:42.120Z,4.18
2022-12-06T07:47:10.950Z,4.50
2022-12-06T07:52:07.641Z,4.70
2022-12-06T07:54:36.053Z,3.97
2022-12-06T07:57:06.232Z,4.13
2022-12-06T07:59:36.115Z,4.57
2022-12-06T08:02:09.312Z,4.32
2022-12-06T08:04:37.977Z,4.57
2022-12-06T08:07:06.724Z,5.03
2022-12-06T08:12:03.611Z,4.37
2022-12-06T08:14:33.071Z,4.95
2022-12-06T08:17:02.060Z,4.97
2022-12-06T08:19:30.279Z,4.75
2022-12-06T08:21:58.679Z,4.38
2022-12-06T08:24:27.261Z,4.53
2022-12-06T08:26:56.247Z,4.32
2022-12-06T08:29:24.881Z,4.68
2022-12-06T08:31:53.583Z,4.43
2022-12-06T08:34:22.244Z,4.78
2022-12-06T08:36:51.143Z,4.93
2022-12-06T08:39:19.674Z,5.00
2022-12-06T08:41:48.169Z,4.32
2022-12-06T08:44:18.824Z,5.03
2022-12-06T08:46:48.570Z,4.80
2022-12-06T08:49:18.457Z,5.13
2022-12-06T08:51:47.839Z,4.47
2022-12-06T08:54:21.132Z,5.05
2022-12-06T08:56:55.453Z,5.60
2022-12-06T08:59:24.692Z,4.88
2022-12-06T09:01:53.028Z,4.65
2022-12-06T09:04:21.727Z,4.75
2022-12-06T09:06:50.437Z,5.35
2022-12-06T09:09:22.442Z,5.13
2022-12-06T09:11:53.369Z,4.50
2022-12-06T09:14:22.589Z,5.22
2022-12-06T09:16:52.144Z,5.28
2022-12-06T09:19:21.194Z,5.07
2022-12-06T09:24:19.023Z,4.45
2022-12-06T09:26:47.785Z,4.28
2022-12-06T09:34:18.776Z,4.38
2022-12-06T09:37:19.316Z,4.20
2022-12-06T09:39:52.554Z,4.45
2022-12-06T09:42:48.576Z,5.03
2022-12-06T09:45:49.777Z,4.30
2022-12-06T09:48:48.735Z,4.57
2022-12-06T09:51:54.751Z,4.88
2022-12-06T09:55:00.580Z,4.72
2022-12-06T09:57:59.503Z,4.18
2022-12-06T10:03:13.776Z,5.22
2022-12-06T10:05:58.312Z,4.88
2022-12-06T10:08:41.774Z,4.35
2022-12-06T10:11:24.109Z,4.45
2022-12-06T10:14:24.013Z,4.32
2022-12-06T10:17:05.500Z,4.88
2022-12-06T10:20:03.173Z,4.70
2022-12-06T10:22:52.584Z,4.60
2022-12-06T10:25:39.039Z,4.53
2022-12-06T10:28:44.887Z,4.32
2022-12-06T10:31:45.227Z,4.20
2022-12-06T10:34:43.042Z,4.43
2022-12-06T10:37:23.058Z,5.35
2022-12-06T10:40:22.713Z,4.60
2022-12-06T10:42:58.934Z,5.05
2022-12-06T10:46:08.629Z,4.25
2022-12-06T10:48:58.147Z,4.97
2022-12-06T10:51:46.217Z,4.55
2022-12-06T10:54:50.186Z,4.78
2022-12-06T10:57:31.693Z,4.47
2022-12-06T11:00:15.815Z,5.32
2022-12-06T11:03:26.824Z,4.75
2022-12-06T11:06:01.945Z,4.55
2022-12-06T11:09:05.942Z,4.75
2022-12-06T11:11:38.195Z,4.93
2022-12-06T11:14:32.907Z,4.78
2022-12-06T11:17:34.801Z,4.63
2022-12-06T11:20:28.833Z,4.85
2022-12-06T11:23:06.085Z,4.63
2022-12-06T11:25:48.786Z,4.40
2022-12-06T11:28:23.839Z,5.45
2022-12-06T11:30:55.151Z,5.50
2022-12-06T11:33:31.976Z,4.80
2022-12-06T11:36:05.791Z,4.45
2022-12-06T11:38:37.841Z,4.85
2022-12-06T11:41:09.317Z,4.32
2022-12-06T11:43:39.550Z,4.65
2022-12-06T11:46:11.598Z,5.70
2022-12-06T11:48:40.080Z,4.63
2022-12-06T11:51:20.716Z,4.28
2022-12-06T11:54:03.256Z,4.35
2022-12-06T11:56:41.859Z,3.92
2022-12-06T11:59:23.807Z,4.20
2022-12-06T12:01:54.685Z,4.90
2022-12-06T12:04:44.610Z,5.10
2022-12-06T12:07:20.725Z,4.55
2022-12-06T12:10:00.802Z,4.63
2022-12-06T12:12:48.800Z,4.40
2022-12-06T12:15:19.398Z,4.65
2022-12-06T12:17:54.192Z,5.25
2022-12-06T12:20:29.649Z,4.95
2022-12-06T12:23:27.862Z,4.53
2022-12-06T12:26:15.884Z,4.30
2022-12-06T12:29:07.764Z,4.50
2022-12-06T12:31:51.574Z,4.32
2022-12-06T12:34:28.158Z,4.35
2022-12-06T12:37:02.410Z,5.35
2022-12-06T12:39:39.993Z,4.45
2022-12-06T12:42:31.501Z,4.18
2022-12-06T12:45:03.763Z,5.38
2022-12-06T12:47:33.635Z,4.35
2022-12-06T12:50:23.375Z,4.40
2022-12-06T12:52:53.393Z,4.85
2022-12-06T12:55:31.078Z,5.57
2022-12-06T12:58:01.208Z,4.95
2022-12-06T13:00:39.171Z,4.60
2022-12-06T13:03:49.545Z,5.00
2022-12-06T13:06:22.714Z,4.75
2022-12-06T13:08:54.037Z,5.13
2022-12-06T13:11:25.294Z,4.88
2022-12-06T13:13:57.337Z,4.13
2022-12-06T13:16:31.262Z,5.00
2022-12-06T13:19:00.196Z,4.57
2022-12-06T13:21:37.848Z,4.53
2022-12-06T13:24:21.089Z,4.40
2022-12-06T13:27:08.447Z,4.80
2022-12-06T13:29:49.749Z,4.80
2022-12-06T13:32:35.543Z,4.80
2022-12-06T13:35:22.823Z,4.50
2022-12-06T13:37:59.649Z,4.43
2022-12-06T13:40:33.761Z,4.97
2022-12-06T13:43:26.839Z,4.80
2022-12-06T13:46:10.401Z,5.32
2022-12-06T13:48:48.695Z,4.35
2022-12-06T13:51:40.285Z,4.38
2022-12-06T13:54:15.970Z,4.97
2022-12-06T13:56:51.167Z,5.53
2022-12-06T13:59:20.820Z,4.70
2022-12-06T14:01:55.902Z,5.07
2022-12-06T14:06:58.025Z,4.43
2022-12-06T14:09:29.884Z,5.03
2022-12-06T14:12:01.661Z,4.40
2022-12-06T14:14:33.371Z,5.00
2022-12-06T14:17:11.330Z,4.63
2022-12-06T14:19:50.096Z,5.25
2022-12-06T14:22:29.646Z,4.40
2022-12-06T14:25:03.683Z,4.88
2022-12-06T14:27:35.771Z,4.75
2022-12-06T14:30:26.101Z,4.85
2022-12-06T14:32:59.611Z,5.55
2022-12-06T14:35:37.208Z,4.78
2022-12-06T14:38:31.845Z,4.75
2022-12-06T14:41:02.975Z,4.32
2022-12-06T14:43:35.142Z,4.85
2022-12-06T14:46:12.385Z,4.60
2022-12-06T14:48:42.836Z,4.72
2022-12-06T14:51:23.371Z,4.80
2022-12-06T14:53:52.690Z,4.90
2022-12-06T14:56:29.987Z,4.85
2022-12-06T14:59:02.814Z,4.95
2022-12-06T15:01:32.336Z,4.45
2022-12-06T15:04:18.344Z,4.72
2022-12-06T15:06:57.441Z,4.47
2022-12-06T15:09:30.270Z,5.03
2022-12-06T15:12:21.738Z,4.55
2022-12-06T15:14:50.748Z,4.50
2022-12-06T15:19:53.107Z,4.45
2022-12-06T15:22:31.949Z,4.57
2022-12-06T15:25:00.632Z,4.68
2022-12-06T15:27:31.211Z,4.97
2022-12-06T15:30:00.316Z,4.90
2022-12-06T15:35:00.204Z,4.85
2022-12-06T15:37:48.859Z,5.22
2022-12-06T15:40:17.500Z,5.22
2022-12-06T15:42:45.610Z,5.47
2022-12-06T15:45:17.248Z,5.20
2022-12-06T15:47:45.536Z,5.53
2022-12-06T15:50:16.768Z,4.95
2022-12-06T15:52:45.134Z,4.95
2022-12-06T15:55:26.030Z,5.72
2022-12-06T15:57:54.326Z,5.72
2022-12-06T16:00:22.560Z,5.00
2022-12-06T16:02:50.966Z,5.05
2022-12-06T16:05:19.177Z,4.68
2022-12-06T16:07:47.339Z,5.45
2022-12-06T16:10:22.045Z,5.03
2022-12-06T16:12:50.975Z,5.20
2022-12-06T16:15:19.191Z,5.00
2022-12-06T16:17:47.608Z,5.55
2022-12-06T16:20:16.386Z,5.45
2022-12-06T16:22:49.128Z,4.35
2022-12-06T16:25:19.470Z,4.72
2022-12-06T16:27:47.578Z,5.05
2022-12-06T16:30:16.275Z,5.15
2022-12-06T16:32:44.574Z,5.43
2022-12-06T16:35:12.861Z,4.68
2022-12-06T16:37:41.215Z,5.10
2022-12-06T16:40:21.132Z,4.55
2022-12-06T16:42:49.545Z,4.30
2022-12-06T16:45:18.423Z,4.70
2022-12-06T16:47:46.918Z,5.05
2022-12-06T16:50:41.677Z,4.90
2022-12-06T16:53:10.159Z,4.80
2022-12-06T16:55:39.435Z,4.35
2022-12-06T16:58:07.774Z,5.03
2022-12-06T17:00:36.229Z,4.65
2022-12-06T17:03:04.737Z,4.75
2022-12-06T17:05:36.180Z,4.90
2022-12-06T17:08:05.002Z,5.43
2022-12-06T17:10:33.570Z,4.72
2022-12-06T17:13:01.774Z,4.68
2022-12-06T17:15:33.035Z,4.78
2022-12-06T17:18:01.520Z,4.75
2022-12-06T17:20:34.593Z,5.15
2022-12-06T17:23:03.198Z,5.38
2022-12-06T17:25:31.845Z,4.30
2022-12-06T17:28:01.826Z,5.63
2022-12-06T17:30:30.218Z,4.90
2022-12-06T17:32:58.593Z,5.63
2022-12-06T17:35:28.117Z,5.88
2022-12-06T17:37:56.626Z,5.55
2022-12-06T17:40:28.733Z,6.03
2022-12-06T17:42:59.869Z,5.45
2022-12-06T17:45:28.766Z,5.00
2022-12-06T17:50:25.475Z,5.50
2022-12-06T17:52:54.279Z,5.32
2022-12-06T17:55:22.580Z,4.88
2022-12-06T17:57:50.921Z,5.35
2022-12-06T18:00:19.855Z,4.95
2022-12-06T18:05:18.012Z,4.30
2022-12-06T18:07:50.157Z,3.60
2022-12-06T18:10:20.783Z,5.68
2022-12-06T18:15:18.137Z,5.30
2022-12-06T18:17:48.448Z,4.53
2022-12-06T18:20:17.363Z,5.75
2022-12-06T18:22:46.604Z,4.85
2022-12-06T18:25:16.128Z,5.45
2022-12-06T18:27:45.349Z,5.60
2022-12-06T18:30:22.802Z,4.72
2022-12-06T18:32:54.549Z,5.30
2022-12-06T18:35:23.696Z,4.95
2022-12-06T18:37:53.928Z,5.07
2022-12-06T18:40:22.702Z,4.85
2022-12-06T18:42:51.458Z,5.15
2022-12-06T18:47:50.449Z,5.45
2022-12-06T18:50:19.441Z,4.47
2022-12-06T18:52:47.934Z,5.38
2022-12-06T18:55:16.918Z,4.82
2022-12-06T19:00:14.114Z,5.35
2022-12-06T19:02:42.885Z,4.80
2022-12-06T19:05:11.228Z,4.93
2022-12-06T19:07:39.733Z,4.63
2022-12-06T19:10:08.724Z,5.28
2022-12-06T19:12:37.282Z,5.60
2022-12-06T19:15:10.467Z,6.15
2022-12-06T19:17:38.925Z,5.75
2022-12-06T19:20:09.298Z,6.00
2022-12-06T19:22:41.403Z,5.32
2022-12-06T19:25:11.504Z,6.00
2022-12-06T19:27:40.359Z,5.70
2022-12-06T19:30:14.990Z,7.70
2022-12-06T19:32:43.626Z,8.23
2022-12-06T19:35:12.246Z,9.00
2022-12-06T19:37:41.487Z,9.63
2022-12-06T19:42:38.564Z,9.80
2022-12-06T19:45:08.300Z,11.32
2022-12-06T19:47:36.463Z,10.55
2022-12-06T19:50:05.522Z,11.85
2022-12-06T19:52:35.766Z,12.80
2022-12-06T19:55:07.054Z,11.68
2022-12-06T19:57:36.307Z,11.55
2022-12-06T20:02:41.381Z,13.63
2022-12-06T20:05:11.449Z,13.75
2022-12-06T20:07:44.859Z,14.25
2022-12-06T20:10:19.471Z,14.32
2022-12-06T20:12:48.484Z,13.55
2022-12-06T20:15:21.139Z,13.68
2022-12-06T20:17:50.272Z,14.63
2022-12-06T20:20:19.202Z,14.65
2022-12-06T20:22:50.180Z,13.98
2022-12-06T20:25:18.815Z,14.52
2022-12-06T20:27:47.401Z,14.27
2022-12-06T20:30:16.138Z,14.27
2022-12-06T20:32:44.883Z,13.95
2022-12-06T20:35:13.626Z,15.13
2022-12-06T20:40:10.976Z,14.40
2022-12-06T20:42:42.791Z,14.35
2022-12-06T20:45:11.475Z,14.10
2022-12-06T20:47:40.154Z,13.02
2022-12-06T20:50:09.290Z,14.40
2022-12-06T20:55:07.244Z,14.85
2022-12-06T20:57:37.513Z,15.20
2022-12-06T21:00:08.172Z,13.18
2022-12-06T21:02:38.457Z,13.10
2022-12-06T21:05:09.374Z,13.32
2022-12-06T21:07:37.876Z,13.77
2022-12-06T21:10:06.951Z,14.68
2022-12-06T21:12:35.426Z,13.88
2022-12-06T21:15:04.084Z,12.45
2022-12-06T21:20:20.519Z,12.65
2022-12-06T21:22:49.386Z,13.15
2022-12-06T21:27:45.914Z,13.50
2022-12-06T21:30:14.618Z,11.63
2022-12-06T21:35:11.237Z,11.43
2022-12-06T21:37:44.309Z,11.45
2022-12-06T21:40:13.401Z,10.65
2022-12-06T21:42:43.313Z,11.63
2022-12-06T21:45:12.679Z,12.20
2022-12-06T21:47:44.085Z,11.55
2022-12-06T21:50:17.569Z,11.80
2022-12-06T21:52:47.270Z,10.13
2022-12-06T21:55:15.586Z,9.73
2022-12-06T21:57:44.105Z,10.98
2022-12-06T22:00:13.313Z,11.88
2022-12-06T22:02:42.056Z,11.75
2022-12-06T22:05:11.217Z,10.73
2022-12-06T22:07:39.938Z,10.35
2022-12-06T22:10:16.946Z,10.82
2022-12-06T22:12:49.494Z,9.98
2022-12-06T22:15:38.861Z,11.60
2022-12-06T22:18:09.235Z,9.82
2022-12-06T22:20:39.484Z,10.05
2022-12-06T22:23:09.439Z,10.25
2022-12-06T22:25:40.507Z,10.25
2022-12-06T22:28:14.496Z,11.07
2022-12-06T22:30:44.380Z,9.63
2022-12-06T22:33:15.291Z,9.52
2022-12-06T22:35:45.471Z,10.57
2022-12-06T22:38:13.776Z,9.95
2022-12-06T22:40:48.031Z,9.77
2022-12-06T22:43:17.814Z,9.90
2022-12-06T22:45:46.658Z,9.80
2022-12-06T22:48:15.493Z,9.85
2022-12-06T22:50:44.553Z,10.23
2022-12-06T22:53:14.583Z,10.10
2022-12-06T22:55:42.887Z,9.10
2022-12-06T22:58:11.177Z,9.52
2022-12-06T23:00:39.662Z,9.27
2022-12-06T23:03:08.185Z,8.68
2022-12-06T23:05:36.876Z,9.20
2022-12-06T23:08:05.425Z,10.07
2022-12-06T23:13:03.710Z,9.18
2022-12-06T23:15:32.585Z,8.63
2022-12-06T23:20:32.219Z,8.52
2022-12-06T23:23:04.370Z,8.68
2022-12-06T23:25:33.973Z,8.70
2022-12-06T23:28:02.786Z,8.43
2022-12-06T23:32:59.421Z,8.93
2022-12-06T23:35:27.709Z,8.10
2022-12-06T23:37:56.108Z,8.93
2022-12-06T23:40:26.278Z,8.50
2022-12-06T23:42:54.837Z,8.98
2022-12-06T23:45:24.151Z,8.48
2022-12-06T23:47:52.619Z,8.10
2022-12-06T23:50:20.962Z,7.93
2022-12-06T23:52:49.291Z,7.85
2022-12-06T23:55:17.632Z,7.38
2022-12-06T23:57:47.966Z,8.43
